createdAt,value
2022-11-06T00:01:47.771Z,100838.53
2022-11-06T00:04:15.690Z,100838.63
2022-11-06T00:06:48.014Z,100849.91
2022-11-06T00:09:17.728Z,100844.75
2022-11-06T00:11:45.912Z,100845.75
2022-11-06T00:14:15.384Z,100848.34
2022-11-06T00:16:44.451Z,100852.63
2022-11-06T00:19:12.853Z,100848.22
2022-11-06T00:21:40.762Z,100843.97
2022-11-06T00:24:09.877Z,100839.72
2022-11-06T00:26:37.875Z,100843.34
2022-11-06T00:29:06.862Z,100837.34
2022-11-06T00:31:38.039Z,100824.63
2022-11-06T00:34:07.645Z,100823.84
2022-11-06T00:36:36.107Z,100819.47
2022-11-06T00:39:04.687Z,100821.03
2022-11-06T00:41:32.776Z,100808.13
2022-11-06T00:44:02.983Z,100807.38
2022-11-06T00:46:31.451Z,100811.78
2022-11-06T00:49:00.630Z,100806.63
2022-11-06T00:51:30.000Z,100797.16
2022-11-06T00:53:59.208Z,100789.34
2022-11-06T00:56:27.651Z,100794.53
2022-11-06T00:58:56.212Z,100794.44
2022-11-06T01:01:25.657Z,100797.84
2022-11-06T01:03:57.541Z,100795.22
2022-11-06T01:06:29.154Z,100793.47
2022-11-06T01:08:57.421Z,100797.09
2022-11-06T01:11:41.616Z,100793.09
2022-11-06T01:14:19.083Z,100797.53
2022-11-06T01:16:47.685Z,100792.44
2022-11-06T01:19:17.515Z,100784.44
2022-11-06T01:21:50.190Z,100784.22
2022-11-06T01:24:20.822Z,100776.44
2022-11-06T01:27:19.983Z,100778.25
2022-11-06T01:29:37.638Z,100777.38
2022-11-06T01:32:06.401Z,100777.38
2022-11-06T01:34:34.327Z,100786.84
2022-11-06T01:37:03.396Z,100780.00
2022-11-06T01:39:31.134Z,100779.13
2022-11-06T01:41:59.226Z,100781.69
2022-11-06T01:45:06.985Z,100780.78
2022-11-06T01:47:34.651Z,100765.34
2022-11-06T01:50:06.620Z,100761.84
2022-11-06T01:52:36.982Z,100758.59
2022-11-06T01:55:10.345Z,100764.72
2022-11-06T01:57:38.438Z,100752.81
2022-11-06T02:00:07.876Z,100747.03
2022-11-06T02:02:37.374Z,100748.88
2022-11-06T02:05:06.153Z,100751.50
2022-11-06T02:07:35.879Z,100753.16
2022-11-06T02:10:04.144Z,100757.47
2022-11-06T02:12:43.351Z,100756.59
2022-11-06T02:15:19.279Z,100748.97
2022-11-06T02:18:02.460Z,100747.25
2022-11-06T02:20:36.764Z,100735.97
2022-11-06T02:23:26.365Z,100737.69
2022-11-06T02:26:04.348Z,100735.06
2022-11-06T02:28:38.051Z,100739.41
2022-11-06T02:31:11.697Z,100727.28
2022-11-06T02:33:45.650Z,100732.38
2022-11-06T02:36:17.252Z,100726.34
2022-11-06T02:38:49.374Z,100724.63
2022-11-06T02:41:21.219Z,100722.91
2022-11-06T02:43:54.109Z,100719.59
2022-11-06T02:46:27.861Z,100724.69
2022-11-06T02:49:01.249Z,100725.59
2022-11-06T02:51:31.944Z,100728.25
2022-11-06T02:54:04.242Z,100725.72
2022-11-06T02:56:36.319Z,100732.66
2022-11-06T02:59:10.226Z,100718.91
2022-11-06T03:01:41.248Z,100727.56
2022-11-06T03:04:17.434Z,100734.44
2022-11-06T03:06:49.641Z,100737.97
2022-11-06T03:09:21.797Z,100723.31
2022-11-06T03:11:58.648Z,100719.13
2022-11-06T03:14:33.151Z,100722.50
2022-11-06T03:17:06.893Z,100712.13
2022-11-06T03:19:50.282Z,100706.28
2022-11-06T03:22:27.891Z,100713.22
2022-11-06T03:25:01.511Z,100713.22
2022-11-06T03:27:35.361Z,100717.47
2022-11-06T03:30:08.864Z,100720.16
2022-11-06T03:32:41.265Z,100723.69
2022-11-06T03:35:14.057Z,100710.66
2022-11-06T03:37:48.977Z,100708.81
2022-11-06T03:40:20.683Z,100700.03
2022-11-06T03:42:52.682Z,100688.81
2022-11-06T03:45:24.587Z,100685.28
2022-11-06T03:47:57.546Z,100686.13
2022-11-06T03:50:31.342Z,100676.66
2022-11-06T03:53:04.960Z,100677.47
2022-11-06T03:55:37.907Z,100672.31
2022-11-06T03:58:11.227Z,100676.53
2022-11-06T04:00:43.156Z,100678.25
2022-11-06T04:03:18.618Z,100677.34
2022-11-06T04:05:52.647Z,100673.91
2022-11-06T04:08:40.801Z,100673.91
2022-11-06T04:11:33.575Z,100674.03
2022-11-06T04:14:02.529Z,100670.59
2022-11-06T04:16:35.835Z,100674.09
2022-11-06T04:19:03.861Z,100668.94
2022-11-06T04:21:49.321Z,100669.91
2022-11-06T04:24:48.758Z,100681.91
2022-11-06T04:27:27.647Z,100693.88
2022-11-06T04:30:08.389Z,100688.69
2022-11-06T04:33:07.208Z,100700.72
2022-11-06T04:35:49.285Z,100707.59
2022-11-06T04:38:26.870Z,100706.59
2022-11-06T04:41:07.735Z,100697.84
2022-11-06T04:43:44.940Z,100700.38
2022-11-06T04:46:18.634Z,100685.75
2022-11-06T04:48:48.779Z,100680.66
2022-11-06T04:51:19.904Z,100684.09
2022-11-06T04:53:51.019Z,100686.69
2022-11-06T04:56:25.780Z,100684.84
2022-11-06T04:58:53.730Z,100694.47
2022-11-06T05:01:21.512Z,100690.19
2022-11-06T05:03:50.561Z,100696.06
2022-11-06T05:06:18.352Z,100690.19
2022-11-06T05:08:46.116Z,100696.19
2022-11-06T05:11:14.009Z,100695.19
2022-11-06T05:13:41.740Z,100690.84
2022-11-06T05:16:09.445Z,100679.66
2022-11-06T05:18:37.416Z,100678.75
2022-11-06T05:21:24.176Z,100683.03
2022-11-06T05:23:52.377Z,100674.44
2022-11-06T05:26:20.027Z,100676.22
2022-11-06T05:28:47.713Z,100672.84
2022-11-06T05:31:15.380Z,100670.22
2022-11-06T05:33:43.114Z,100668.50
2022-11-06T05:36:12.114Z,100674.50
2022-11-06T05:38:39.826Z,100665.94
2022-11-06T05:41:07.452Z,100660.78
2022-11-06T05:43:35.742Z,100664.19
2022-11-06T05:46:03.440Z,100663.41
2022-11-06T05:48:31.424Z,100653.13
2022-11-06T05:51:01.863Z,100648.03
2022-11-06T05:53:31.314Z,100634.28
2022-11-06T05:55:59.126Z,100629.19
2022-11-06T05:58:27.461Z,100613.66
2022-11-06T06:00:55.573Z,100612.84
2022-11-06T06:03:23.870Z,100617.97
2022-11-06T06:05:52.049Z,100635.16
2022-11-06T06:08:20.005Z,100622.19
2022-11-06T06:10:49.832Z,100616.22
2022-11-06T06:13:17.794Z,100619.56
2022-11-06T06:15:46.482Z,100617.09
2022-11-06T06:18:14.530Z,100612.78
2022-11-06T06:20:42.361Z,100609.22
2022-11-06T06:23:11.064Z,100607.66
2022-11-06T06:25:38.756Z,100599.09
2022-11-06T06:28:07.762Z,100590.50
2022-11-06T06:30:35.992Z,100591.50
2022-11-06T06:33:06.284Z,100586.56
2022-11-06T06:35:34.013Z,100575.41
2022-11-06T06:38:01.660Z,100572.00
2022-11-06T06:40:29.968Z,100565.16
2022-11-06T06:42:58.153Z,100564.34
2022-11-06T06:45:27.769Z,100568.69
2022-11-06T06:47:55.467Z,100567.78
2022-11-06T06:50:23.162Z,100562.63
2022-11-06T06:52:50.817Z,100555.75
2022-11-06T06:55:18.456Z,100557.47
2022-11-06T06:57:46.134Z,100560.97
2022-11-06T07:00:14.413Z,100560.84
2022-11-06T07:02:43.374Z,100554.78
2022-11-06T07:05:11.218Z,100559.22
2022-11-06T07:07:38.917Z,100550.47
2022-11-06T07:10:07.712Z,100556.47
2022-11-06T07:12:35.580Z,100568.63
2022-11-06T07:15:03.288Z,100561.72
2022-11-06T07:17:30.911Z,100559.19
2022-11-06T07:19:59.888Z,100550.44
2022-11-06T07:22:35.418Z,100546.88
2022-11-06T07:25:05.591Z,100553.72
2022-11-06T07:27:33.473Z,100550.09
2022-11-06T07:30:01.435Z,100545.00
2022-11-06T07:32:29.054Z,100542.38
2022-11-06T07:34:57.029Z,100542.34
2022-11-06T07:37:26.141Z,100540.59
2022-11-06T07:39:53.887Z,100540.53
2022-11-06T07:42:21.585Z,100550.84
2022-11-06T07:45:03.756Z,100556.13
2022-11-06T07:47:31.923Z,100559.47
2022-11-06T07:50:00.070Z,100558.34
2022-11-06T07:52:29.162Z,100556.38
2022-11-06T07:54:56.862Z,100568.44
2022-11-06T07:57:24.663Z,100574.03
2022-11-06T07:59:52.413Z,100585.28
2022-11-06T08:02:20.980Z,100590.72
2022-11-06T08:04:48.755Z,100593.88
2022-11-06T08:07:16.717Z,100597.53
2022-11-06T08:09:45.828Z,100580.19
2022-11-06T08:12:14.516Z,100590.31
2022-11-06T08:14:42.252Z,100579.13
2022-11-06T08:17:10.866Z,100571.78
2022-11-06T08:19:38.563Z,100564.66
2022-11-06T08:22:06.329Z,100566.25
2022-11-06T08:24:34.335Z,100572.13
2022-11-06T08:27:03.382Z,100572.91
2022-11-06T08:29:31.417Z,100573.63
2022-11-06T08:31:59.118Z,100569.38
2022-11-06T08:34:26.935Z,100569.94
2022-11-06T08:36:55.031Z,100564.59
2022-11-06T08:39:22.720Z,100571.66
2022-11-06T08:41:50.715Z,100559.16
2022-11-06T08:44:20.126Z,100553.97
2022-11-06T08:46:52.123Z,100558.09
2022-11-06T08:49:20.464Z,100560.81
2022-11-06T08:51:48.388Z,100542.84
2022-11-06T08:54:16.261Z,100539.94
2022-11-06T08:56:44.005Z,100533.06
2022-11-06T08:59:12.335Z,100526.88
2022-11-06T09:01:41.513Z,100526.81
2022-11-06T09:04:09.598Z,100522.53
2022-11-06T09:06:37.571Z,100521.75
2022-11-06T09:09:05.645Z,100512.06
2022-11-06T09:11:33.513Z,100519.84
2022-11-06T09:14:01.346Z,100507.50
2022-11-06T09:16:29.155Z,100505.75
2022-11-06T09:18:58.909Z,100494.50
2022-11-06T09:21:26.714Z,100484.81
2022-11-06T09:23:54.508Z,100482.63
2022-11-06T09:26:22.187Z,100469.59
2022-11-06T09:28:51.127Z,100472.16
2022-11-06T09:31:18.853Z,100466.47
2022-11-06T09:33:46.880Z,100468.28
2022-11-06T09:36:16.442Z,100463.97
2022-11-06T09:38:44.110Z,100459.69
2022-11-06T09:41:19.540Z,100461.00
2022-11-06T09:44:06.192Z,100465.44
2022-11-06T09:46:40.023Z,100455.84
2022-11-06T09:49:16.270Z,100448.72
2022-11-06T09:51:52.804Z,100451.97
2022-11-06T09:54:25.361Z,100440.94
2022-11-06T09:57:06.509Z,100442.59
2022-11-06T09:59:37.953Z,100439.78
2022-11-06T10:02:21.367Z,100427.25
2022-11-06T10:04:56.541Z,100413.31
2022-11-06T10:07:30.093Z,100403.47
2022-11-06T10:09:58.433Z,100385.31
2022-11-06T10:12:42.366Z,100378.41
2022-11-06T10:15:20.817Z,100381.44
2022-11-06T10:17:56.122Z,100371.09
2022-11-06T10:20:31.784Z,100366.13
2022-11-06T10:23:06.575Z,100373.19
2022-11-06T10:26:05.277Z,100376.34
2022-11-06T10:28:47.533Z,100365.00
2022-11-06T10:31:24.684Z,100359.09
2022-11-06T10:33:58.797Z,100358.56
2022-11-06T10:36:32.381Z,100358.28
2022-11-06T10:39:04.747Z,100364.81
2022-11-06T10:41:37.861Z,100364.63
2022-11-06T10:44:09.236Z,100355.34
2022-11-06T10:46:40.828Z,100343.06
2022-11-06T10:49:17.900Z,100344.53
2022-11-06T10:51:59.624Z,100342.78
2022-11-06T10:54:43.738Z,100332.72
2022-11-06T10:57:29.629Z,100323.16
2022-11-06T10:59:57.453Z,100315.75
2022-11-06T11:02:29.525Z,100308.53
2022-11-06T11:04:58.418Z,100313.19
2022-11-06T11:07:30.238Z,100300.53
2022-11-06T11:10:02.214Z,100304.19
2022-11-06T11:12:33.068Z,100294.63
2022-11-06T11:15:12.910Z,100288.38
2022-11-06T11:17:42.094Z,100283.53
2022-11-06T11:20:32.787Z,100280.41
2022-11-06T11:23:16.815Z,100284.63
2022-11-06T11:25:48.622Z,100279.22
2022-11-06T11:28:26.570Z,100267.41
2022-11-06T11:30:56.863Z,100263.19
2022-11-06T11:33:27.119Z,100255.28
2022-11-06T11:35:55.430Z,100239.66
2022-11-06T11:38:23.971Z,100236.03
2022-11-06T11:40:53.393Z,100220.66
2022-11-06T11:43:27.296Z,100216.34
2022-11-06T11:46:18.099Z,100213.56
2022-11-06T11:48:48.388Z,100209.13
2022-11-06T11:51:28.561Z,100189.28
2022-11-06T11:53:59.911Z,100192.53
2022-11-06T11:57:02.359Z,100200.38
2022-11-06T11:59:21.647Z,100186.81
2022-11-06T12:01:50.492Z,100172.50
2022-11-06T12:04:22.894Z,100169.53
2022-11-06T12:06:57.904Z,100162.50
2022-11-06T12:09:27.113Z,100147.47
2022-11-06T12:11:59.092Z,100144.06
2022-11-06T12:14:33.864Z,100145.97
2022-11-06T12:17:16.412Z,100144.13
2022-11-06T12:19:50.828Z,100135.84
2022-11-06T12:22:28.094Z,100131.91
2022-11-06T12:25:03.023Z,100139.38
2022-11-06T12:27:38.110Z,100135.56
2022-11-06T12:30:08.058Z,100138.72
2022-11-06T12:32:46.990Z,100138.91
2022-11-06T12:35:22.348Z,100138.66
2022-11-06T12:37:59.258Z,100132.66
2022-11-06T12:40:31.058Z,100107.72
2022-11-06T12:43:11.617Z,100090.38
2022-11-06T12:45:51.080Z,100085.34
2022-11-06T12:48:33.840Z,100086.69
2022-11-06T12:51:11.214Z,100088.34
2022-11-06T12:53:51.894Z,100078.88
2022-11-06T12:56:26.302Z,100069.69
2022-11-06T12:59:10.686Z,100071.59
2022-11-06T13:01:46.126Z,100068.56
2022-11-06T13:04:35.702Z,100065.75
2022-11-06T13:07:39.857Z,100059.56
2022-11-06T13:10:23.507Z,100066.59
2022-11-06T13:13:04.102Z,100056.22
2022-11-06T13:15:39.746Z,100062.25
2022-11-06T13:18:15.403Z,100063.91
2022-11-06T13:20:50.845Z,100070.25
2022-11-06T13:23:26.419Z,100072.00
2022-11-06T13:26:01.817Z,100065.16
2022-11-06T13:28:35.241Z,100069.41
2022-11-06T13:31:09.269Z,100064.75
2022-11-06T13:33:43.450Z,100054.56
2022-11-06T13:36:12.267Z,100063.19
2022-11-06T13:38:44.165Z,100060.22
2022-11-06T13:41:16.581Z,100050.66
2022-11-06T13:43:46.960Z,100032.06
2022-11-06T13:46:26.981Z,100026.81
2022-11-06T13:49:07.897Z,100027.72
2022-11-06T13:51:45.549Z,100019.03
2022-11-06T13:54:23.708Z,100022.69
2022-11-06T13:57:16.850Z,100014.88
2022-11-06T14:00:10.447Z,100008.69
2022-11-06T14:03:06.716Z,99990.59
2022-11-06T14:05:49.425Z,100001.19
2022-11-06T14:08:22.481Z,100003.78
2022-11-06T14:10:57.088Z,100016.00
2022-11-06T14:13:27.833Z,100013.41
2022-11-06T14:16:04.519Z,100026.31
2022-11-06T14:18:34.717Z,100021.84
2022-11-06T14:21:44.788Z,100014.25
2022-11-06T14:24:31.202Z,100014.44
2022-11-06T14:26:59.888Z,100016.47
2022-11-06T14:29:58.778Z,100009.38
2022-11-06T14:32:46.071Z,100012.00
2022-11-06T14:35:52.511Z,99997.91
2022-11-06T14:38:33.811Z,100000.59
2022-11-06T14:41:02.487Z,100000.91
2022-11-06T14:43:33.270Z,100000.19
2022-11-06T14:46:05.183Z,100004.78
2022-11-06T14:48:36.814Z,100013.50
2022-11-06T14:51:07.508Z,100017.88
2022-11-06T14:53:46.081Z,100012.72
2022-11-06T14:56:22.602Z,99997.97
2022-11-06T14:58:55.853Z,99989.22
2022-11-06T15:01:28.670Z,99991.25
2022-11-06T15:03:59.176Z,99988.81
2022-11-06T15:06:44.052Z,99985.38
2022-11-06T15:09:15.745Z,99989.66
2022-11-06T15:11:56.024Z,99980.94
2022-11-06T15:14:57.209Z,99994.84
2022-11-06T15:17:33.341Z,99987.09
2022-11-06T15:20:14.768Z,99980.38
2022-11-06T15:22:48.617Z,99970.13
2022-11-06T15:25:27.580Z,99972.06
2022-11-06T15:28:04.269Z,99979.00
2022-11-06T15:30:41.376Z,99980.66
2022-11-06T15:33:15.596Z,99981.53
2022-11-06T15:35:47.168Z,99987.63
2022-11-06T15:38:18.605Z,99985.94
2022-11-06T15:40:50.251Z,99976.53
2022-11-06T15:43:26.339Z,99968.91
2022-11-06T15:46:21.409Z,99967.19
2022-11-06T15:48:50.423Z,99956.97
2022-11-06T15:51:24.099Z,99954.28
2022-11-06T15:53:52.082Z,99950.13
2022-11-06T15:56:25.243Z,99960.13
2022-11-06T15:59:08.832Z,99960.59
2022-11-06T16:01:37.449Z,99949.50
2022-11-06T16:04:15.763Z,99948.69
2022-11-06T16:06:45.412Z,99942.81
2022-11-06T16:09:19.209Z,99933.41
2022-11-06T16:11:51.362Z,99930.69
2022-11-06T16:14:20.343Z,99928.31
2022-11-06T16:16:50.306Z,99942.44
2022-11-06T16:19:25.185Z,99945.91
2022-11-06T16:21:57.190Z,99952.63
2022-11-06T16:24:28.853Z,99955.81
2022-11-06T16:26:58.123Z,99953.00
2022-11-06T16:29:28.680Z,99952.00
2022-11-06T16:32:01.920Z,99950.25
2022-11-06T16:34:39.070Z,99942.47
2022-11-06T16:37:29.448Z,99946.72
2022-11-06T16:39:59.386Z,99954.50
2022-11-06T16:42:30.692Z,99962.19
2022-11-06T16:45:03.352Z,99966.53
2022-11-06T16:47:31.159Z,99970.06
2022-11-06T16:50:01.770Z,99976.00
2022-11-06T16:52:31.262Z,99986.16
2022-11-06T16:55:02.064Z,99981.59
2022-11-06T16:57:34.941Z,99985.88
2022-11-06T17:00:05.612Z,99985.81
2022-11-06T17:02:37.446Z,99984.84
2022-11-06T17:05:11.727Z,99984.78
2022-11-06T17:07:40.232Z,99977.97
2022-11-06T17:10:38.272Z,99973.03
2022-11-06T17:13:16.093Z,99974.78
2022-11-06T17:15:46.404Z,99960.91
2022-11-06T17:18:20.589Z,99956.13
2022-11-06T17:20:53.039Z,99948.91
2022-11-06T17:23:27.119Z,99952.69
2022-11-06T17:25:59.145Z,99960.00
2022-11-06T17:28:28.361Z,99950.78
2022-11-06T17:30:56.678Z,99942.94
2022-11-06T17:33:24.554Z,99946.22
2022-11-06T17:35:52.216Z,99953.47
2022-11-06T17:38:19.914Z,99959.75
2022-11-06T17:40:47.684Z,99953.72
2022-11-06T17:43:16.267Z,99947.16
2022-11-06T17:45:48.011Z,99939.25
2022-11-06T17:48:15.770Z,99944.94
2022-11-06T17:51:01.251Z,99940.22
2022-11-06T17:53:29.182Z,99937.84
2022-11-06T17:55:57.143Z,99940.91
2022-11-06T17:58:24.849Z,99936.91
2022-11-06T18:00:53.844Z,99949.16
2022-11-06T18:03:23.680Z,99937.84
2022-11-06T18:05:51.753Z,99942.81
2022-11-06T18:08:19.628Z,99939.53
2022-11-06T18:10:54.709Z,99948.19
2022-11-06T18:13:22.407Z,99938.31
2022-11-06T18:15:50.077Z,99945.25
2022-11-06T18:18:19.182Z,99945.97
2022-11-06T18:20:48.317Z,99958.03
2022-11-06T18:23:16.049Z,99971.59
2022-11-06T18:25:44.606Z,99963.91
2022-11-06T18:28:12.386Z,99956.84
2022-11-06T18:30:40.099Z,99969.84
2022-11-06T18:33:07.935Z,99973.16
2022-11-06T18:35:36.918Z,99970.34
2022-11-06T18:38:04.626Z,99977.72
2022-11-06T18:40:32.370Z,99963.00
2022-11-06T18:43:00.014Z,99956.50
2022-11-06T18:45:27.686Z,99980.34
2022-11-06T18:47:55.337Z,99977.56
2022-11-06T18:50:22.965Z,99978.75
2022-11-06T18:52:57.926Z,99997.03
2022-11-06T18:55:26.160Z,99995.59
2022-11-06T18:57:54.678Z,99988.63
2022-11-06T19:00:23.372Z,99985.69
2022-11-06T19:02:52.941Z,99981.69
2022-11-06T19:05:21.371Z,99986.72
2022-11-06T19:07:52.887Z,99991.72
2022-11-06T19:10:24.156Z,99997.25
2022-11-06T19:12:51.906Z,100016.22
2022-11-06T19:15:19.588Z,100030.31
2022-11-06T19:17:47.486Z,100037.69
2022-11-06T19:20:15.588Z,100042.22
2022-11-06T19:22:43.396Z,100037.41
2022-11-06T19:25:11.124Z,100045.31
2022-11-06T19:27:40.235Z,100046.34
2022-11-06T19:30:09.448Z,100046.06
2022-11-06T19:32:37.700Z,100042.00
2022-11-06T19:35:06.200Z,100039.72
2022-11-06T19:37:34.074Z,100047.22
2022-11-06T19:40:06.036Z,100057.84
2022-11-06T19:42:35.003Z,100054.28
2022-11-06T19:45:05.553Z,100052.50
2022-11-06T19:47:33.289Z,100045.50
2022-11-06T19:50:01.669Z,100042.94
2022-11-06T19:52:42.895Z,100047.19
2022-11-06T19:55:27.102Z,100040.44
2022-11-06T19:57:55.812Z,100035.91
2022-11-06T20:00:24.939Z,100034.09
2022-11-06T20:02:52.785Z,100033.31
2022-11-06T20:05:20.550Z,100029.16
2022-11-06T20:07:48.313Z,100034.44
2022-11-06T20:10:16.837Z,100024.38
2022-11-06T20:12:44.676Z,100029.66
2022-11-06T20:15:12.371Z,100035.22
2022-11-06T20:17:41.526Z,100033.78
2022-11-06T20:20:10.606Z,100027.94
2022-11-06T20:22:38.505Z,100028.72
2022-11-06T20:25:07.028Z,100039.28
2022-11-06T20:27:34.791Z,100033.38
2022-11-06T20:30:03.010Z,100037.78
2022-11-06T20:32:30.836Z,100046.66
2022-11-06T20:35:00.310Z,100053.50
2022-11-06T20:37:28.123Z,100048.84
2022-11-06T20:39:56.071Z,100051.41
2022-11-06T20:42:24.441Z,100049.59
2022-11-06T20:44:52.150Z,100041.50
2022-11-06T20:47:19.856Z,100055.97
2022-11-06T20:49:47.557Z,100063.41
2022-11-06T20:52:16.665Z,100064.91
2022-11-06T20:54:47.448Z,100072.50
2022-11-06T20:57:15.927Z,100082.50
2022-11-06T20:59:43.944Z,100083.03
2022-11-06T21:02:12.309Z,100087.31
2022-11-06T21:04:40.169Z,100088.03
2022-11-06T21:07:07.907Z,100089.78
2022-11-06T21:09:37.325Z,100092.88
2022-11-06T21:12:05.470Z,100102.78
2022-11-06T21:14:33.807Z,100102.28
2022-11-06T21:17:02.304Z,100100.38
2022-11-06T21:19:30.228Z,100101.25
2022-11-06T21:21:58.465Z,100085.41
2022-11-06T21:24:26.406Z,100087.03
2022-11-06T21:26:56.320Z,100083.06
2022-11-06T21:29:25.966Z,100096.13
2022-11-06T21:31:54.489Z,100092.13
2022-11-06T21:34:22.432Z,100104.19
2022-11-06T21:36:50.282Z,100100.03
2022-11-06T21:39:20.044Z,100096.38
2022-11-06T21:41:48.284Z,100094.72
2022-11-06T21:44:19.032Z,100093.66
2022-11-06T21:46:47.184Z,100094.63
2022-11-06T21:49:15.431Z,100096.72
2022-11-06T21:51:43.161Z,100096.28
2022-11-06T21:54:29.512Z,100105.03
2022-11-06T21:56:57.565Z,100120.09
2022-11-06T21:59:28.808Z,100113.28
2022-11-06T22:01:57.167Z,100124.50
2022-11-06T22:04:25.118Z,100128.66
2022-11-06T22:06:53.256Z,100127.69
2022-11-06T22:09:25.191Z,100134.53
2022-11-06T22:11:54.359Z,100137.84
2022-11-06T22:14:22.560Z,100142.91
2022-11-06T22:16:51.983Z,100147.13
2022-11-06T22:19:20.493Z,100148.16
2022-11-06T22:21:48.167Z,100141.22
2022-11-06T22:24:16.468Z,100138.56
2022-11-06T22:26:44.357Z,100140.31
2022-11-06T22:29:14.777Z,100137.59
2022-11-06T22:31:43.264Z,100134.16
2022-11-06T22:34:13.435Z,100134.97
2022-11-06T22:36:42.088Z,100127.97
2022-11-06T22:39:11.415Z,100129.47
2022-11-06T22:41:39.495Z,100137.03
2022-11-06T22:44:08.188Z,100133.44
2022-11-06T22:46:36.256Z,100137.69
2022-11-06T22:49:04.963Z,100139.34
2022-11-06T22:51:34.777Z,100140.06
2022-11-06T22:54:03.150Z,100130.47
2022-11-06T22:56:31.681Z,100139.94
2022-11-06T22:59:01.242Z,100134.88
2022-11-06T23:01:31.338Z,100142.56
2022-11-06T23:04:00.987Z,100144.28
2022-11-06T23:06:28.760Z,100148.56
2022-11-06T23:08:57.934Z,100150.19
2022-11-06T23:11:27.454Z,100156.19
2022-11-06T23:13:56.357Z,100160.34
2022-11-06T23:16:40.478Z,100157.03
2022-11-06T23:19:08.361Z,100149.72
2022-11-06T23:21:36.049Z,100149.66
2022-11-06T23:24:06.445Z,100144.91
2022-11-06T23:26:34.624Z,100151.13
2022-11-06T23:29:03.302Z,100162.56
2022-11-06T23:31:30.921Z,100162.72
2022-11-06T23:33:58.632Z,100169.75
2022-11-06T23:36:26.601Z,100167.06
2022-11-06T23:38:54.865Z,100179.81
2022-11-06T23:41:41.571Z,100182.41
2022-11-06T23:44:29.633Z,100179.75
2022-11-06T23:46:57.216Z,100188.19
2022-11-06T23:49:25.479Z,100185.56
2022-11-06T23:51:53.315Z,100187.22
2022-11-06T23:54:20.989Z,100188.91
2022-11-06T23:56:50.043Z,100186.28
2022-11-06T23:59:17.820Z,100193.94
